createdAt,value
2023-02-06T00:00:06.682Z,100.00
2023-02-06T00:02:39.398Z,100.00
2023-02-06T00:05:12.518Z,100.00
2023-02-06T00:07:45.370Z,100.00
2023-02-06T00:10:19.675Z,100.00
2023-02-06T00:12:53.401Z,100.00
2023-02-06T00:15:26.583Z,100.00
2023-02-06T00:17:59.339Z,100.00
2023-02-06T00:20:32.204Z,100.00
2023-02-06T00:23:04.969Z,100.00
2023-02-06T00:25:39.219Z,100.00
2023-02-06T00:28:12.405Z,100.00
2023-02-06T00:30:48.163Z,100.00
2023-02-06T00:33:21.306Z,100.00
2023-02-06T00:35:54.099Z,100.00
2023-02-06T00:38:26.949Z,100.00
2023-02-06T00:41:01.162Z,100.00
2023-02-06T00:43:36.848Z,100.00
2023-02-06T00:46:10.156Z,100.00
2023-02-06T00:48:42.949Z,100.00
2023-02-06T00:51:15.745Z,100.00
2023-02-06T00:53:50.977Z,100.00
2023-02-06T00:56:25.359Z,100.00
2023-02-06T00:58:58.244Z,100.00
2023-02-06T01:01:31.092Z,100.00
2023-02-06T01:04:03.962Z,100.00
2023-02-06T01:06:36.691Z,100.00
2023-02-06T01:09:09.445Z,100.00
2023-02-06T01:11:43.595Z,100.00
2023-02-06T01:14:16.646Z,100.00
2023-02-06T01:16:49.514Z,100.00
2023-02-06T01:19:23.028Z,100.00
2023-02-06T01:21:55.898Z,100.00
2023-02-06T01:24:28.758Z,100.00
2023-02-06T01:27:03.473Z,100.00
2023-02-06T01:29:36.408Z,100.00
2023-02-06T01:32:09.161Z,100.00
2023-02-06T01:34:41.973Z,100.00
2023-02-06T01:37:15.189Z,100.00
2023-02-06T01:39:47.927Z,100.00
2023-02-06T01:42:22.092Z,100.00
2023-02-06T01:45:33.552Z,100.00
2023-02-06T01:48:11.121Z,100.00
2023-02-06T01:50:46.991Z,100.00
2023-02-06T01:53:21.623Z,100.00
2023-02-06T01:55:57.516Z,100.00
2023-02-06T01:58:36.594Z,100.00
2023-02-06T02:01:10.480Z,100.00
2023-02-06T02:03:45.428Z,100.00
2023-02-06T02:06:21.819Z,100.00
2023-02-06T02:08:58.319Z,100.00
2023-02-06T02:11:34.965Z,100.00
2023-02-06T02:14:14.118Z,100.00
2023-02-06T02:16:58.248Z,100.00
2023-02-06T02:20:13.316Z,100.00
2023-02-06T02:23:06.132Z,100.00
2023-02-06T02:26:17.082Z,100.00
2023-02-06T02:29:28.431Z,100.00
2023-02-06T02:32:37.791Z,100.00
2023-02-06T02:35:24.430Z,100.00
2023-02-06T02:38:07.892Z,100.00
2023-02-06T02:40:48.568Z,100.00
2023-02-06T02:43:33.852Z,100.00
2023-02-06T02:46:14.396Z,100.00
2023-02-06T02:48:50.214Z,100.00
2023-02-06T02:51:25.477Z,100.00
2023-02-06T02:53:58.827Z,100.00
2023-02-06T02:56:33.791Z,100.00
2023-02-06T02:59:11.743Z,100.00
2023-02-06T03:01:49.736Z,100.00
2023-02-06T03:04:26.463Z,100.00
2023-02-06T03:07:14.607Z,100.00
2023-02-06T03:09:58.662Z,100.00
2023-02-06T03:12:39.717Z,100.00
2023-02-06T03:15:24.661Z,100.00
2023-02-06T03:18:02.300Z,100.00
2023-02-06T03:20:37.993Z,100.00
2023-02-06T03:23:14.087Z,100.00
2023-02-06T03:25:51.897Z,100.00
2023-02-06T03:28:28.846Z,100.00
2023-02-06T03:31:06.868Z,100.00
2023-02-06T03:33:46.588Z,100.00
2023-02-06T03:36:20.271Z,100.00
2023-02-06T03:38:54.856Z,100.00
2023-02-06T03:41:35.661Z,100.00
2023-02-06T03:44:13.290Z,100.00
2023-02-06T03:46:48.898Z,100.00
2023-02-06T03:49:25.710Z,100.00
2023-02-06T03:52:03.067Z,100.00
2023-02-06T03:54:40.402Z,100.00
2023-02-06T03:57:19.328Z,100.00
2023-02-06T03:59:52.622Z,100.00
2023-02-06T04:02:27.206Z,100.00
2023-02-06T04:05:00.047Z,100.00
2023-02-06T04:07:36.183Z,100.00
2023-02-06T04:10:11.154Z,100.00
2023-02-06T04:12:43.955Z,100.00
2023-02-06T04:15:16.901Z,100.00
2023-02-06T04:18:00.029Z,100.00
2023-02-06T04:20:34.322Z,100.00
2023-02-06T04:23:07.252Z,100.00
2023-02-06T04:25:41.334Z,100.00
2023-02-06T04:28:14.578Z,100.00
2023-02-06T04:30:49.013Z,100.00
2023-02-06T04:33:21.951Z,100.00
2023-02-06T04:35:54.818Z,100.00
2023-02-06T04:38:27.712Z,100.00
2023-02-06T04:41:04.875Z,100.00
2023-02-06T04:43:37.689Z,100.00
2023-02-06T04:46:10.473Z,100.00
2023-02-06T04:48:43.471Z,100.00
2023-02-06T04:51:16.541Z,100.00
2023-02-06T04:53:49.346Z,100.00
2023-02-06T04:56:25.500Z,100.00
2023-02-06T04:58:58.830Z,100.00
2023-02-06T05:01:31.958Z,100.00
2023-02-06T05:04:04.797Z,100.00
2023-02-06T05:06:37.633Z,100.00
2023-02-06T05:09:10.825Z,100.00
2023-02-06T05:11:44.972Z,100.00
2023-02-06T05:14:17.840Z,100.00
2023-02-06T05:16:50.603Z,100.00
2023-02-06T05:19:23.457Z,100.00
2023-02-06T05:21:56.245Z,100.00
2023-02-06T05:24:29.208Z,100.00
2023-02-06T05:27:03.386Z,100.00
2023-02-06T05:29:36.204Z,100.00
2023-02-06T05:32:08.991Z,100.00
2023-02-06T05:34:41.785Z,100.00
2023-02-06T05:37:14.561Z,100.00
2023-02-06T05:39:47.335Z,100.00
2023-02-06T05:42:21.639Z,100.00
2023-02-06T05:44:54.437Z,100.00
2023-02-06T05:47:27.526Z,100.00
2023-02-06T05:50:00.286Z,100.00
2023-02-06T05:52:33.202Z,100.00
2023-02-06T05:55:06.601Z,100.00
2023-02-06T05:57:40.768Z,100.00
2023-02-06T06:00:14.840Z,100.00
2023-02-06T06:02:47.702Z,100.00
2023-02-06T06:05:21.347Z,100.00
2023-02-06T06:07:54.121Z,100.00
2023-02-06T06:10:26.916Z,100.00
2023-02-06T06:13:01.060Z,100.00
2023-02-06T06:15:34.230Z,100.00
2023-02-06T06:18:07.352Z,100.00
2023-02-06T06:20:40.173Z,100.00
2023-02-06T06:23:12.968Z,100.00
2023-02-06T06:25:47.051Z,100.00
2023-02-06T06:28:21.291Z,100.00
2023-02-06T06:31:01.650Z,100.00
2023-02-06T06:33:34.415Z,100.00
2023-02-06T06:36:08.638Z,100.00
2023-02-06T06:38:41.474Z,100.00
2023-02-06T06:41:14.234Z,100.00
2023-02-06T06:43:51.221Z,100.00
2023-02-06T06:46:24.450Z,100.00
2023-02-06T06:48:57.197Z,100.00
2023-02-06T06:51:30.261Z,100.00
2023-02-06T06:54:03.303Z,100.00
2023-02-06T06:56:36.219Z,100.00
2023-02-06T06:59:10.500Z,100.00
2023-02-06T07:01:43.358Z,100.00
2023-02-06T07:04:16.241Z,100.00
2023-02-06T07:06:49.087Z,100.00
2023-02-06T07:09:22.171Z,100.00
2023-02-06T07:11:55.101Z,100.00
2023-02-06T07:14:29.296Z,100.00
2023-02-06T07:17:02.148Z,100.00
2023-02-06T07:19:35.043Z,100.00
2023-02-06T07:22:07.781Z,100.00
2023-02-06T07:24:40.506Z,100.00
2023-02-06T07:27:13.618Z,100.00
2023-02-06T07:29:47.753Z,100.00
2023-02-06T07:32:20.542Z,100.00
2023-02-06T07:34:53.273Z,100.00
2023-02-06T07:37:26.162Z,100.00
2023-02-06T07:39:58.942Z,100.00
2023-02-06T07:42:33.448Z,100.00
2023-02-06T07:45:15.718Z,100.00
2023-02-06T07:47:48.459Z,100.00
2023-02-06T07:50:21.499Z,100.00
2023-02-06T07:52:54.186Z,100.00
2023-02-06T07:55:26.975Z,100.00
2023-02-06T07:57:59.721Z,100.00
2023-02-06T08:00:33.840Z,100.00
2023-02-06T08:03:07.222Z,100.00
2023-02-06T08:05:40.707Z,100.00
2023-02-06T08:08:14.058Z,100.00
2023-02-06T08:10:47.204Z,100.00
2023-02-06T08:13:20.124Z,100.00
2023-02-06T08:15:54.888Z,100.00
2023-02-06T08:18:29.593Z,100.00
2023-02-06T08:21:03.390Z,100.00
2023-02-06T08:23:36.540Z,100.00
2023-02-06T08:26:12.589Z,100.00
2023-02-06T08:28:50.112Z,100.00
2023-02-06T08:31:27.491Z,100.00
2023-02-06T08:34:00.781Z,100.00
2023-02-06T08:36:33.804Z,100.00
2023-02-06T08:39:07.266Z,100.00
2023-02-06T08:41:41.783Z,100.00
2023-02-06T08:44:16.126Z,100.00
2023-02-06T08:46:56.226Z,100.00
2023-02-06T08:49:34.363Z,100.00
2023-02-06T08:52:07.145Z,100.00
2023-02-06T08:54:39.923Z,100.00
2023-02-06T08:57:13.585Z,100.00
2023-02-06T08:59:46.380Z,100.00
2023-02-06T09:02:20.560Z,100.00
2023-02-06T09:04:53.345Z,100.00
2023-02-06T09:07:26.247Z,100.00
2023-02-06T09:09:59.031Z,100.00
2023-02-06T09:12:31.771Z,100.00
2023-02-06T09:15:04.808Z,100.00
2023-02-06T09:17:38.826Z,100.00
2023-02-06T09:20:11.892Z,100.00
2023-02-06T09:22:45.472Z,100.00
2023-02-06T09:25:18.364Z,100.00
2023-02-06T09:27:51.148Z,100.00
2023-02-06T09:30:24.140Z,100.00
2023-02-06T09:32:58.236Z,100.00
2023-02-06T09:35:30.973Z,100.00
2023-02-06T09:38:03.714Z,100.00
2023-02-06T09:40:37.548Z,100.00
2023-02-06T09:43:13.928Z,100.00
2023-02-06T09:45:47.278Z,100.00
2023-02-06T09:48:26.089Z,100.00
2023-02-06T09:51:08.157Z,100.00
2023-02-06T09:53:53.464Z,100.00
2023-02-06T09:56:33.812Z,100.00
2023-02-06T09:59:12.882Z,100.00
2023-02-06T10:01:52.809Z,100.00
2023-02-06T10:04:40.978Z,100.00
2023-02-06T10:07:47.420Z,100.00
2023-02-06T10:10:27.377Z,100.00
2023-02-06T10:13:04.624Z,100.00
2023-02-06T10:15:42.836Z,100.00
2023-02-06T10:18:18.997Z,100.00
2023-02-06T10:20:58.499Z,100.00
2023-02-06T10:23:40.509Z,100.00
2023-02-06T10:26:17.388Z,100.00
2023-02-06T10:28:53.937Z,100.00
2023-02-06T10:31:40.147Z,100.00
2023-02-06T10:34:32.066Z,100.00
2023-02-06T10:37:24.633Z,100.00
2023-02-06T10:40:21.687Z,100.00
2023-02-06T10:42:59.168Z,100.00
2023-02-06T10:45:41.768Z,100.00
2023-02-06T10:48:25.066Z,100.00
2023-02-06T10:51:04.978Z,100.00
2023-02-06T10:53:46.722Z,100.00
2023-02-06T10:56:22.833Z,100.00
2023-02-06T10:58:59.095Z,100.00
2023-02-06T11:01:35.589Z,100.00
2023-02-06T11:04:16.809Z,100.00
2023-02-06T11:06:49.767Z,100.00
2023-02-06T11:09:24.497Z,100.00
2023-02-06T11:11:59.238Z,100.00
2023-02-06T11:14:36.572Z,100.00
2023-02-06T11:17:09.750Z,100.00
2023-02-06T11:19:45.347Z,100.00
2023-02-06T11:22:28.916Z,100.00
2023-02-06T11:25:05.456Z,100.00
2023-02-06T11:27:38.230Z,100.00
2023-02-06T11:30:32.407Z,100.00
2023-02-06T11:33:08.592Z,100.00
2023-02-06T11:35:50.093Z,100.00
2023-02-06T11:38:24.990Z,100.00
2023-02-06T11:41:01.903Z,99.55
2023-02-06T11:43:49.719Z,98.56
2023-02-06T11:46:26.235Z,97.67
2023-02-06T11:49:07.803Z,97.19
2023-02-06T11:51:51.668Z,97.31
2023-02-06T11:54:28.255Z,97.30
2023-02-06T11:57:07.866Z,97.69
2023-02-06T11:59:52.530Z,97.42
2023-02-06T12:02:28.796Z,97.37
2023-02-06T12:05:35.366Z,96.62
2023-02-06T12:08:21.515Z,96.52
2023-02-06T12:10:59.246Z,95.78
2023-02-06T12:13:38.760Z,95.72
2023-02-06T12:16:15.066Z,95.79
2023-02-06T12:18:52.099Z,94.77
2023-02-06T12:21:35.683Z,93.48
2023-02-06T12:24:22.190Z,92.94
2023-02-06T12:26:56.462Z,92.67
2023-02-06T12:29:35.925Z,93.34
2023-02-06T12:32:15.262Z,93.49
2023-02-06T12:34:53.813Z,92.21
2023-02-06T12:37:32.478Z,91.19
2023-02-06T12:40:14.493Z,92.04
2023-02-06T12:42:51.367Z,91.91
2023-02-06T12:45:36.252Z,91.20
2023-02-06T12:48:17.848Z,90.11
2023-02-06T12:51:04.286Z,89.23
2023-02-06T12:53:41.571Z,89.89
2023-02-06T12:56:24.933Z,89.66
2023-02-06T12:59:08.222Z,89.69
2023-02-06T13:01:54.029Z,88.32
2023-02-06T13:04:31.505Z,89.34
2023-02-06T13:07:08.247Z,89.30
2023-02-06T13:09:48.021Z,89.43
2023-02-06T13:12:23.686Z,89.37
2023-02-06T13:14:58.673Z,89.64
2023-02-06T13:17:37.349Z,90.71
2023-02-06T13:20:12.329Z,90.51
2023-02-06T13:22:47.453Z,90.00
2023-02-06T13:25:47.735Z,89.41
2023-02-06T13:28:57.780Z,90.04
2023-02-06T13:31:35.449Z,90.12
2023-02-06T13:34:18.770Z,90.43
2023-02-06T13:36:53.734Z,90.35
2023-02-06T13:39:32.531Z,89.79
2023-02-06T13:42:36.234Z,89.56
2023-02-06T13:45:18.943Z,89.22
2023-02-06T13:48:22.998Z,89.56
2023-02-06T13:51:08.182Z,90.00
2023-02-06T13:54:17.944Z,90.02
2023-02-06T13:57:19.307Z,89.63
2023-02-06T13:59:55.747Z,89.83
2023-02-06T14:02:34.978Z,89.56
2023-02-06T14:05:14.020Z,90.36
2023-02-06T14:08:09.506Z,90.65
2023-02-06T14:11:29.688Z,89.88
2023-02-06T14:14:28.418Z,89.83
2023-02-06T14:17:10.722Z,89.12
2023-02-06T14:19:52.645Z,88.79
2023-02-06T14:22:34.922Z,88.43
2023-02-06T14:25:32.329Z,88.16
2023-02-06T14:28:18.135Z,87.71
2023-02-06T14:30:59.953Z,87.81
2023-02-06T14:33:53.784Z,87.59
2023-02-06T14:36:43.012Z,87.70
2023-02-06T14:39:48.163Z,88.01
2023-02-06T14:42:26.198Z,88.66
2023-02-06T14:45:03.627Z,88.20
2023-02-06T14:47:42.523Z,86.26
2023-02-06T14:50:20.041Z,86.86
2023-02-06T14:52:57.114Z,87.22
2023-02-06T14:55:36.041Z,86.87
2023-02-06T14:58:21.041Z,86.22
2023-02-06T15:00:54.720Z,86.85
2023-02-06T15:03:28.438Z,86.95
2023-02-06T15:06:04.485Z,87.15
2023-02-06T15:08:37.387Z,88.28
2023-02-06T15:11:22.071Z,88.74
2023-02-06T15:13:57.469Z,88.28
2023-02-06T15:16:30.986Z,88.23
2023-02-06T15:19:12.198Z,87.46
2023-02-06T15:21:45.252Z,87.54
2023-02-06T15:24:33.580Z,87.56
2023-02-06T15:27:15.125Z,88.32
2023-02-06T15:29:51.322Z,88.73
2023-02-06T15:32:28.833Z,89.91
2023-02-06T15:35:02.807Z,89.70
2023-02-06T15:37:37.252Z,89.45
2023-02-06T15:40:18.843Z,89.87
2023-02-06T15:42:52.181Z,90.95
2023-02-06T15:45:29.655Z,90.77
2023-02-06T15:48:11.748Z,91.00
2023-02-06T15:50:56.931Z,91.57
2023-02-06T15:53:33.406Z,92.22
2023-02-06T15:56:08.972Z,92.21
2023-02-06T15:58:42.057Z,91.48
2023-02-06T16:01:20.218Z,91.10
2023-02-06T16:03:58.215Z,90.50
2023-02-06T16:06:31.333Z,90.25
2023-02-06T16:09:07.195Z,89.76
2023-02-06T16:11:53.107Z,89.61
2023-02-06T16:14:34.972Z,89.27
2023-02-06T16:17:24.727Z,88.73
2023-02-06T16:20:02.799Z,88.70
2023-02-06T16:22:38.443Z,88.69
2023-02-06T16:25:21.816Z,88.41
2023-02-06T16:27:54.793Z,88.56
2023-02-06T16:30:31.359Z,88.64
2023-02-06T16:33:23.827Z,89.24
2023-02-06T16:35:56.863Z,88.84
2023-02-06T16:38:30.006Z,89.65
2023-02-06T16:41:03.175Z,89.97
2023-02-06T16:43:36.008Z,90.36
2023-02-06T16:46:08.893Z,90.45
2023-02-06T16:48:43.289Z,90.52
2023-02-06T16:51:18.415Z,90.36
2023-02-06T16:53:52.181Z,90.67
2023-02-06T16:56:25.644Z,90.94
2023-02-06T16:58:58.494Z,91.64
2023-02-06T17:01:32.381Z,91.93
2023-02-06T17:04:39.089Z,92.11
2023-02-06T17:07:18.695Z,92.84
2023-02-06T17:09:53.901Z,92.59
2023-02-06T17:12:26.843Z,92.66
2023-02-06T17:14:59.771Z,93.05
2023-02-06T17:17:33.062Z,93.01
2023-02-06T17:20:12.620Z,92.90
2023-02-06T17:22:45.607Z,93.17
2023-02-06T17:25:18.848Z,93.02
2023-02-06T17:27:51.865Z,93.44
2023-02-06T17:30:26.520Z,93.80
2023-02-06T17:33:02.920Z,93.44
2023-02-06T17:35:38.414Z,93.90
2023-02-06T17:38:11.653Z,93.55
2023-02-06T17:40:44.899Z,93.98
2023-02-06T17:43:18.290Z,93.79
2023-02-06T17:45:51.499Z,94.33
2023-02-06T17:48:24.694Z,94.73
2023-02-06T17:50:59.114Z,94.78
2023-02-06T17:53:32.345Z,94.56
2023-02-06T17:56:07.082Z,94.87
2023-02-06T17:58:40.887Z,94.87
2023-02-06T18:01:15.359Z,94.84
2023-02-06T18:03:48.697Z,95.05
2023-02-06T18:06:23.292Z,94.32
2023-02-06T18:08:56.187Z,94.61
2023-02-06T18:11:29.388Z,94.36
2023-02-06T18:14:03.659Z,94.80
2023-02-06T18:16:37.963Z,94.51
2023-02-06T18:19:11.242Z,94.61
2023-02-06T18:21:45.425Z,94.58
2023-02-06T18:24:18.477Z,95.30
2023-02-06T18:26:51.412Z,95.11
2023-02-06T18:29:24.696Z,94.77
2023-02-06T18:31:57.650Z,94.87
2023-02-06T18:34:30.669Z,94.73
2023-02-06T18:37:05.191Z,95.16
2023-02-06T18:39:38.787Z,95.31
2023-02-06T18:42:30.313Z,95.61
2023-02-06T18:45:04.234Z,95.76
2023-02-06T18:47:39.084Z,96.36
2023-02-06T18:50:13.217Z,96.27
2023-02-06T18:52:47.827Z,96.79
2023-02-06T18:55:20.910Z,96.39
2023-02-06T18:57:54.017Z,96.77
2023-02-06T19:00:27.377Z,96.58
2023-02-06T19:03:00.999Z,96.65
2023-02-06T19:05:36.568Z,96.59
2023-02-06T19:08:10.889Z,96.61
2023-02-06T19:10:43.767Z,96.19
2023-02-06T19:13:16.582Z,95.94
2023-02-06T19:15:49.498Z,96.13
2023-02-06T19:18:36.001Z,95.70
2023-02-06T19:21:12.805Z,95.63
2023-02-06T19:23:49.063Z,96.36
2023-02-06T19:26:22.769Z,96.69
2023-02-06T19:28:56.663Z,97.05
2023-02-06T19:31:29.596Z,96.26
2023-02-06T19:34:03.337Z,95.69
2023-02-06T19:36:36.433Z,95.16
2023-02-06T19:39:13.604Z,95.14
2023-02-06T19:41:46.402Z,95.37
2023-02-06T19:44:19.205Z,95.86
2023-02-06T19:46:52.120Z,95.79
2023-02-06T19:49:25.386Z,96.96
2023-02-06T19:51:58.218Z,96.71
2023-02-06T19:54:32.380Z,96.72
2023-02-06T19:57:05.294Z,97.16
2023-02-06T19:59:38.088Z,97.18
2023-02-06T20:02:15.135Z,97.85
2023-02-06T20:04:47.988Z,96.96
2023-02-06T20:07:20.734Z,96.84
2023-02-06T20:09:55.958Z,96.33
2023-02-06T20:12:29.242Z,96.34
2023-02-06T20:15:02.293Z,95.97
2023-02-06T20:17:35.125Z,95.34
2023-02-06T20:20:08.864Z,95.12
2023-02-06T20:22:42.295Z,94.56
2023-02-06T20:25:17.341Z,94.68
2023-02-06T20:27:50.101Z,95.35
2023-02-06T20:30:24.389Z,94.65
2023-02-06T20:32:57.126Z,94.69
2023-02-06T20:35:29.959Z,94.10
2023-02-06T20:38:02.711Z,94.62
2023-02-06T20:40:39.576Z,94.35
2023-02-06T20:43:12.342Z,94.16
2023-02-06T20:45:45.134Z,94.38
2023-02-06T20:48:17.992Z,94.95
2023-02-06T20:50:50.984Z,94.72
2023-02-06T20:53:23.793Z,95.08
2023-02-06T20:55:59.568Z,95.25
2023-02-06T20:58:33.023Z,95.47
2023-02-06T21:01:13.408Z,95.18
2023-02-06T21:03:46.707Z,95.00
2023-02-06T21:06:19.573Z,95.12
2023-02-06T21:08:57.238Z,94.90
2023-02-06T21:11:37.924Z,95.06
2023-02-06T21:14:11.823Z,95.03
2023-02-06T21:16:44.839Z,95.20
2023-02-06T21:19:19.775Z,95.14
2023-02-06T21:21:52.519Z,94.80
2023-02-06T21:24:25.301Z,94.90
2023-02-06T21:26:59.415Z,95.10
2023-02-06T21:29:32.205Z,95.06
2023-02-06T21:32:13.722Z,95.12
2023-02-06T21:34:46.915Z,95.37
2023-02-06T21:37:22.430Z,95.58
2023-02-06T21:39:55.252Z,95.51
2023-02-06T21:42:29.381Z,95.66
2023-02-06T21:45:02.170Z,95.59
2023-02-06T21:47:35.501Z,95.88
2023-02-06T21:50:08.949Z,95.98
2023-02-06T21:52:42.309Z,96.53
2023-02-06T21:55:15.100Z,96.43
2023-02-06T21:57:49.257Z,95.98
2023-02-06T22:00:22.190Z,95.84
2023-02-06T22:02:55.044Z,95.25
2023-02-06T22:05:29.041Z,95.47
2023-02-06T22:08:01.849Z,95.68
2023-02-06T22:10:36.845Z,94.99
2023-02-06T22:13:10.953Z,94.50
2023-02-06T22:15:49.545Z,94.86
2023-02-06T22:18:22.325Z,95.37
2023-02-06T22:21:05.285Z,95.60
2023-02-06T22:23:38.188Z,94.81
2023-02-06T22:26:13.465Z,94.60
2023-02-06T22:28:48.227Z,94.54
2023-02-06T22:31:23.683Z,94.24
2023-02-06T22:33:58.001Z,94.08
2023-02-06T22:36:32.742Z,94.63
2023-02-06T22:39:08.171Z,94.68
2023-02-06T22:41:42.280Z,94.45
2023-02-06T22:44:17.857Z,94.51
2023-02-06T22:46:52.693Z,95.08
2023-02-06T22:49:26.402Z,95.79
2023-02-06T22:51:59.577Z,96.21
2023-02-06T22:54:32.509Z,96.98
2023-02-06T22:57:05.259Z,97.75
2023-02-06T22:59:39.696Z,97.92
2023-02-06T23:02:15.332Z,97.53
2023-02-06T23:04:48.106Z,97.55
2023-02-06T23:07:20.932Z,96.30
2023-02-06T23:09:53.819Z,95.54
2023-02-06T23:12:26.706Z,94.57
2023-02-06T23:15:00.782Z,94.04
2023-02-06T23:17:33.643Z,93.02
2023-02-06T23:20:07.082Z,92.09
2023-02-06T23:22:39.984Z,91.18
2023-02-06T23:25:12.816Z,90.78
2023-02-06T23:27:45.930Z,90.34
2023-02-06T23:30:21.205Z,90.33
2023-02-06T23:32:54.043Z,89.66
2023-02-06T23:35:26.916Z,89.42
2023-02-06T23:37:59.805Z,89.17
2023-02-06T23:40:32.893Z,89.67
2023-02-06T23:43:06.415Z,89.54
2023-02-06T23:45:41.854Z,89.42
2023-02-06T23:48:14.647Z,89.58
2023-02-06T23:50:47.466Z,89.38
2023-02-06T23:53:20.357Z,88.93
2023-02-06T23:55:53.580Z,89.25
2023-02-06T23:58:26.495Z,89.83
